sensor_id;sensor_type;location;lat;lon;timestamp;temperature;humidity
15535;DHT22;7869;49.264;8.596;2022-08-21T00:02:00;16.90;99.90
15535;DHT22;7869;49.264;8.596;2022-08-21T00:04:25;16.80;99.90
15535;DHT22;7869;49.264;8.596;2022-08-21T00:06:51;16.70;99.90
15535;DHT22;7869;49.264;8.596;2022-08-21T00:09:18;16.70;99.90
15535;DHT22;7869;49.264;8.596;2022-08-21T00:11:45;16.70;99.90
15535;DHT22;7869;49.264;8.596;2022-08-21T00:14:13;16.70;99.90
15535;DHT22;7869;49.264;8.596;2022-08-21T00:16:39;16.60;99.90
15535;DHT22;7869;49.264;8.596;2022-08-21T00:19:05;16.50;1.00
15535;DHT22;7869;49.264;8.596;2022-08-21T00:21:32;16.40;1.00
15535;DHT22;7869;49.264;8.596;2022-08-21T00:23:57;16.50;1.00
15535;DHT22;7869;49.264;8.596;2022-08-21T00:26:23;16.80;1.00
15535;DHT22;7869;49.264;8.596;2022-08-21T00:28:48;17.00;99.90
15535;DHT22;7869;49.264;8.596;2022-08-21T00:31:15;16.80;99.90
15535;DHT22;7869;49.264;8.596;2022-08-21T00:33:42;16.70;1.00
15535;DHT22;7869;49.264;8.596;2022-08-21T00:36:08;16.60;1.00
15535;DHT22;7869;49.264;8.596;2022-08-21T00:38:33;16.60;1.00
15535;DHT22;7869;49.264;8.596;2022-08-21T00:41:01;16.50;1.00
15535;DHT22;7869;49.264;8.596;2022-08-21T00:43:31;16.50;1.00
15535;DHT22;7869;49.264;8.596;2022-08-21T00:45:57;16.40;1.00
15535;DHT22;7869;49.264;8.596;2022-08-21T00:48:24;16.30;1.00
15535;DHT22;7869;49.264;8.596;2022-08-21T00:50:54;16.30;1.00
15535;DHT22;7869;49.264;8.596;2022-08-21T00:53:21;16.30;99.90
15535;DHT22;7869;49.264;8.596;2022-08-21T00:55:47;16.20;99.90
15535;DHT22;7869;49.264;8.596;2022-08-21T00:58:14;16.20;1.00
15535;DHT22;7869;49.264;8.596;2022-08-21T01:00:44;16.20;1.00
15535;DHT22;7869;49.264;8.596;2022-08-21T01:03:14;16.20;1.00
15535;DHT22;7869;49.264;8.596;2022-08-21T01:05:42;16.20;1.00
15535;DHT22;7869;49.264;8.596;2022-08-21T01:08:08;16.10;1.00
15535;DHT22;7869;49.264;8.596;2022-08-21T01:10:36;15.90;99.90
15535;DHT22;7869;49.264;8.596;2022-08-21T01:13:04;15.80;99.90
15535;DHT22;7869;49.264;8.596;2022-08-21T01:15:35;15.80;99.90
15535;DHT22;7869;49.264;8.596;2022-08-21T01:18:03;15.90;99.90
15535;DHT22;7869;49.264;8.596;2022-08-21T01:20:30;16.20;99.90
15535;DHT22;7869;49.264;8.596;2022-08-21T01:22:56;16.40;98.20
15535;DHT22;7869;49.264;8.596;2022-08-21T01:25:22;16.30;38.80
15535;DHT22;7869;49.264;8.596;2022-08-21T01:27:48;16.10;47.10
15535;DHT22;7869;49.264;8.596;2022-08-21T01:30:20;15.90;98.60
15535;DHT22;7869;49.264;8.596;2022-08-21T01:32:46;15.70;99.90
15535;DHT22;7869;49.264;8.596;2022-08-21T01:35:15;15.50;99.90
15535;DHT22;7869;49.264;8.596;2022-08-21T01:37:42;15.40;1.00
15535;DHT22;7869;49.264;8.596;2022-08-21T01:40:08;15.60;99.90
15535;DHT22;7869;49.264;8.596;2022-08-21T01:42:35;15.60;99.90
15535;DHT22;7869;49.264;8.596;2022-08-21T01:45:00;15.90;99.90
15535;DHT22;7869;49.264;8.596;2022-08-21T01:47:26;15.80;99.90
15535;DHT22;7869;49.264;8.596;2022-08-21T01:49:52;15.60;99.90
15535;DHT22;7869;49.264;8.596;2022-08-21T01:52:18;15.40;1.00
15535;DHT22;7869;49.264;8.596;2022-08-21T01:54:44;15.30;1.00
15535;DHT22;7869;49.264;8.596;2022-08-21T01:57:11;15.30;63.10
15535;DHT22;7869;49.264;8.596;2022-08-21T01:59:37;15.30;1.00
15535;DHT22;7869;49.264;8.596;2022-08-21T02:02:03;15.40;1.00
15535;DHT22;7869;49.264;8.596;2022-08-21T02:04:29;15.20;1.00
15535;DHT22;7869;49.264;8.596;2022-08-21T02:06:56;15.10;99.90
15535;DHT22;7869;49.264;8.596;2022-08-21T02:09:21;15.10;99.90
15535;DHT22;7869;49.264;8.596;2022-08-21T02:11:47;15.20;99.90
15535;DHT22;7869;49.264;8.596;2022-08-21T02:14:14;15.10;99.90
15535;DHT22;7869;49.264;8.596;2022-08-21T02:16:43;15.10;99.90
15535;DHT22;7869;49.264;8.596;2022-08-21T02:19:10;15.00;1.00
15535;DHT22;7869;49.264;8.596;2022-08-21T02:21:36;15.10;1.00
15535;DHT22;7869;49.264;8.596;2022-08-21T02:24:03;15.30;99.90
15535;DHT22;7869;49.264;8.596;2022-08-21T02:26:28;15.40;99.90
15535;DHT22;7869;49.264;8.596;2022-08-21T02:28:54;15.70;1.00
15535;DHT22;7869;49.264;8.596;2022-08-21T02:31:20;15.50;1.00
15535;DHT22;7869;49.264;8.596;2022-08-21T02:33:46;15.40;53.10
15535;DHT22;7869;49.264;8.596;2022-08-21T02:36:12;15.50;99.90
15535;DHT22;7869;49.264;8.596;2022-08-21T02:38:39;15.40;1.00
15535;DHT22;7869;49.264;8.596;2022-08-21T02:41:07;15.40;1.00
15535;DHT22;7869;49.264;8.596;2022-08-21T02:43:33;15.30;1.00
15535;DHT22;7869;49.264;8.596;2022-08-21T02:45:59;15.10;99.90
15535;DHT22;7869;49.264;8.596;2022-08-21T02:48:28;14.90;99.90
15535;DHT22;7869;49.264;8.596;2022-08-21T02:51:00;15.00;1.00
15535;DHT22;7869;49.264;8.596;2022-08-21T02:53:26;15.10;42.20
15535;DHT22;7869;49.264;8.596;2022-08-21T02:55:53;15.00;99.90
15535;DHT22;7869;49.264;8.596;2022-08-21T02:58:23;14.80;99.90
15535;DHT22;7869;49.264;8.596;2022-08-21T03:00:50;14.60;2.80
15535;DHT22;7869;49.264;8.596;2022-08-21T03:03:16;14.40;1.00
15535;DHT22;7869;49.264;8.596;2022-08-21T03:05:43;14.40;1.00
15535;DHT22;7869;49.264;8.596;2022-08-21T03:08:10;14.50;99.90
15535;DHT22;7869;49.264;8.596;2022-08-21T03:10:37;14.50;1.00
15535;DHT22;7869;49.264;8.596;2022-08-21T03:13:05;14.50;99.90
15535;DHT22;7869;49.264;8.596;2022-08-21T03:15:31;14.40;1.00
15535;DHT22;7869;49.264;8.596;2022-08-21T03:17:57;14.40;99.90
15535;DHT22;7869;49.264;8.596;2022-08-21T03:20:26;14.40;1.00
15535;DHT22;7869;49.264;8.596;2022-08-21T03:22:52;14.40;99.90
15535;DHT22;7869;49.264;8.596;2022-08-21T03:25:19;14.30;99.90
15535;DHT22;7869;49.264;8.596;2022-08-21T03:27:46;14.30;1.00
15535;DHT22;7869;49.264;8.596;2022-08-21T03:30:15;14.30;99.90
15535;DHT22;7869;49.264;8.596;2022-08-21T03:32:41;14.40;1.00
15535;DHT22;7869;49.264;8.596;2022-08-21T03:35:07;14.40;1.00
15535;DHT22;7869;49.264;8.596;2022-08-21T03:37:33;14.30;1.00
15535;DHT22;7869;49.264;8.596;2022-08-21T03:39:58;14.20;99.90
15535;DHT22;7869;49.264;8.596;2022-08-21T03:42:24;14.10;99.90
15535;DHT22;7869;49.264;8.596;2022-08-21T03:44:50;14.20;62.90
15535;DHT22;7869;49.264;8.596;2022-08-21T03:47:16;14.30;99.90
15535;DHT22;7869;49.264;8.596;2022-08-21T03:49:41;14.20;1.00
15535;DHT22;7869;49.264;8.596;2022-08-21T03:52:07;13.90;1.00
15535;DHT22;7869;49.264;8.596;2022-08-21T03:54:32;13.80;1.00
15535;DHT22;7869;49.264;8.596;2022-08-21T03:56:58;13.60;99.90
15535;DHT22;7869;49.264;8.596;2022-08-21T03:59:24;13.50;1.00
15535;DHT22;7869;49.264;8.596;2022-08-21T04:01:56;13.50;59.10
15535;DHT22;7869;49.264;8.596;2022-08-21T04:04:22;13.50;99.90
15535;DHT22;7869;49.264;8.596;2022-08-21T04:06:48;13.40;14.30
15535;DHT22;7869;49.264;8.596;2022-08-21T04:09:15;13.30;1.00
15535;DHT22;7869;49.264;8.596;2022-08-21T04:11:41;13.30;99.90
15535;DHT22;7869;49.264;8.596;2022-08-21T04:14:07;13.50;99.90
15535;DHT22;7869;49.264;8.596;2022-08-21T04:16:32;13.50;99.90
15535;DHT22;7869;49.264;8.596;2022-08-21T04:18:58;13.50;99.90
15535;DHT22;7869;49.264;8.596;2022-08-21T04:21:23;13.50;99.90
15535;DHT22;7869;49.264;8.596;2022-08-21T04:23:49;13.60;99.90
15535;DHT22;7869;49.264;8.596;2022-08-21T04:26:15;13.60;99.90
15535;DHT22;7869;49.264;8.596;2022-08-21T04:28:40;13.70;99.90
15535;DHT22;7869;49.264;8.596;2022-08-21T04:31:07;13.70;99.90
15535;DHT22;7869;49.264;8.596;2022-08-21T04:33:32;13.70;99.90
15535;DHT22;7869;49.264;8.596;2022-08-21T04:35:58;13.70;99.90
15535;DHT22;7869;49.264;8.596;2022-08-21T04:38:24;13.60;1.00
15535;DHT22;7869;49.264;8.596;2022-08-21T04:40:50;13.60;1.00
15535;DHT22;7869;49.264;8.596;2022-08-21T04:43:18;13.60;1.00
15535;DHT22;7869;49.264;8.596;2022-08-21T04:45:47;13.70;1.00
15535;DHT22;7869;49.264;8.596;2022-08-21T04:48:17;14.00;1.00
15535;DHT22;7869;49.264;8.596;2022-08-21T04:51:27;14.00;1.00
15535;DHT22;7869;49.264;8.596;2022-08-21T04:53:39;14.00;99.90
15535;DHT22;7869;49.264;8.596;2022-08-21T04:56:12;14.00;1.00
15535;DHT22;7869;49.264;8.596;2022-08-21T04:58:39;14.00;1.00
15535;DHT22;7869;49.264;8.596;2022-08-21T05:01:11;14.10;1.00
15535;DHT22;7869;49.264;8.596;2022-08-21T05:03:38;14.10;99.90
15535;DHT22;7869;49.264;8.596;2022-08-21T05:06:07;14.10;1.00
15535;DHT22;7869;49.264;8.596;2022-08-21T05:08:33;14.20;1.00
15535;DHT22;7869;49.264;8.596;2022-08-21T05:10:59;14.20;99.90
15535;DHT22;7869;49.264;8.596;2022-08-21T05:13:25;14.30;1.00
15535;DHT22;7869;49.264;8.596;2022-08-21T05:15:51;14.30;99.90
15535;DHT22;7869;49.264;8.596;2022-08-21T05:18:17;14.50;64.50
15535;DHT22;7869;49.264;8.596;2022-08-21T05:20:42;14.50;1.00
15535;DHT22;7869;49.264;8.596;2022-08-21T05:23:12;14.50;99.90
15535;DHT22;7869;49.264;8.596;2022-08-21T05:25:38;14.60;1.00
15535;DHT22;7869;49.264;8.596;2022-08-21T05:28:04;14.70;1.00
15535;DHT22;7869;49.264;8.596;2022-08-21T05:30:31;14.80;18.20
15535;DHT22;7869;49.264;8.596;2022-08-21T05:32:59;14.80;1.00
15535;DHT22;7869;49.264;8.596;2022-08-21T05:35:25;14.90;99.90
15535;DHT22;7869;49.264;8.596;2022-08-21T05:37:51;15.00;99.90
15535;DHT22;7869;49.264;8.596;2022-08-21T05:40:17;15.00;59.90
15535;DHT22;7869;49.264;8.596;2022-08-21T05:42:43;15.00;99.90
15535;DHT22;7869;49.264;8.596;2022-08-21T05:45:08;15.10;99.90
15535;DHT22;7869;49.264;8.596;2022-08-21T05:47:34;15.10;99.90
15535;DHT22;7869;49.264;8.596;2022-08-21T05:50:00;15.20;99.90
15535;DHT22;7869;49.264;8.596;2022-08-21T05:52:25;15.30;99.90
15535;DHT22;7869;49.264;8.596;2022-08-21T05:54:51;15.30;1.00
15535;DHT22;7869;49.264;8.596;2022-08-21T05:57:19;15.40;1.00
15535;DHT22;7869;49.264;8.596;2022-08-21T05:59:45;15.60;99.90
15535;DHT22;7869;49.264;8.596;2022-08-21T06:02:11;15.70;1.00
15535;DHT22;7869;49.264;8.596;2022-08-21T06:04:38;15.80;99.90
15535;DHT22;7869;49.264;8.596;2022-08-21T06:07:04;15.90;99.90
15535;DHT22;7869;49.264;8.596;2022-08-21T06:09:30;16.10;1.00
15535;DHT22;7869;49.264;8.596;2022-08-21T06:11:55;16.20;1.00
15535;DHT22;7869;49.264;8.596;2022-08-21T06:14:21;16.30;1.00
15535;DHT22;7869;49.264;8.596;2022-08-21T06:16:46;16.40;99.90
15535;DHT22;7869;49.264;8.596;2022-08-21T06:19:12;16.60;1.00
15535;DHT22;7869;49.264;8.596;2022-08-21T06:21:38;16.60;99.90
15535;DHT22;7869;49.264;8.596;2022-08-21T06:24:04;16.80;78.00
15535;DHT22;7869;49.264;8.596;2022-08-21T06:26:30;16.90;1.00
15535;DHT22;7869;49.264;8.596;2022-08-21T06:28:56;17.00;1.00
15535;DHT22;7869;49.264;8.596;2022-08-21T06:31:25;17.10;99.90
15535;DHT22;7869;49.264;8.596;2022-08-21T06:33:52;17.20;1.00
15535;DHT22;7869;49.264;8.596;2022-08-21T06:36:18;17.30;1.00
15535;DHT22;7869;49.264;8.596;2022-08-21T06:38:45;17.50;99.90
15535;DHT22;7869;49.264;8.596;2022-08-21T06:41:11;17.60;94.80
15535;DHT22;7869;49.264;8.596;2022-08-21T06:43:37;17.70;1.00
15535;DHT22;7869;49.264;8.596;2022-08-21T06:46:03;17.80;1.00
15535;DHT22;7869;49.264;8.596;2022-08-21T06:48:29;17.90;1.00
15535;DHT22;7869;49.264;8.596;2022-08-21T06:50:58;18.00;99.90
15535;DHT22;7869;49.264;8.596;2022-08-21T06:53:24;18.10;99.90
15535;DHT22;7869;49.264;8.596;2022-08-21T06:55:50;18.30;99.90
15535;DHT22;7869;49.264;8.596;2022-08-21T06:58:16;18.50;99.90
15535;DHT22;7869;49.264;8.596;2022-08-21T07:00:45;18.60;99.90
15535;DHT22;7869;49.264;8.596;2022-08-21T07:03:26;18.80;58.50
15535;DHT22;7869;49.264;8.596;2022-08-21T07:05:53;19.00;1.00
15535;DHT22;7869;49.264;8.596;2022-08-21T07:08:20;19.10;1.00
15535;DHT22;7869;49.264;8.596;2022-08-21T07:10:46;19.20;1.00
15535;DHT22;7869;49.264;8.596;2022-08-21T07:13:12;19.40;1.00
15535;DHT22;7869;49.264;8.596;2022-08-21T07:15:38;19.50;1.00
15535;DHT22;7869;49.264;8.596;2022-08-21T07:18:04;19.70;1.00
15535;DHT22;7869;49.264;8.596;2022-08-21T07:20:30;19.80;1.00
15535;DHT22;7869;49.264;8.596;2022-08-21T07:22:58;20.00;1.00
15535;DHT22;7869;49.264;8.596;2022-08-21T07:25:24;20.10;1.00
15535;DHT22;7869;49.264;8.596;2022-08-21T07:27:50;20.20;1.00
15535;DHT22;7869;49.264;8.596;2022-08-21T07:30:16;20.30;99.90
15535;DHT22;7869;49.264;8.596;2022-08-21T07:32:42;20.40;99.90
15535;DHT22;7869;49.264;8.596;2022-08-21T07:35:07;20.50;99.90
15535;DHT22;7869;49.264;8.596;2022-08-21T07:37:33;20.60;99.90
15535;DHT22;7869;49.264;8.596;2022-08-21T07:39:59;20.70;99.90
15535;DHT22;7869;49.264;8.596;2022-08-21T07:42:24;20.70;99.90
15535;DHT22;7869;49.264;8.596;2022-08-21T07:44:50;20.90;99.90
15535;DHT22;7869;49.264;8.596;2022-08-21T07:47:15;21.00;99.90
15535;DHT22;7869;49.264;8.596;2022-08-21T07:49:41;21.10;99.90
15535;DHT22;7869;49.264;8.596;2022-08-21T07:52:07;21.20;99.90
15535;DHT22;7869;49.264;8.596;2022-08-21T07:54:32;21.20;99.90
15535;DHT22;7869;49.264;8.596;2022-08-21T07:56:58;21.40;99.90
15535;DHT22;7869;49.264;8.596;2022-08-21T07:59:23;21.50;99.90
15535;DHT22;7869;49.264;8.596;2022-08-21T08:01:49;21.60;99.90
15535;DHT22;7869;49.264;8.596;2022-08-21T08:04:15;21.70;99.90
15535;DHT22;7869;49.264;8.596;2022-08-21T08:06:41;21.70;99.90
15535;DHT22;7869;49.264;8.596;2022-08-21T08:09:07;21.80;99.90
15535;DHT22;7869;49.264;8.596;2022-08-21T08:11:33;21.90;99.90
15535;DHT22;7869;49.264;8.596;2022-08-21T08:13:58;22.00;99.90
15535;DHT22;7869;49.264;8.596;2022-08-21T08:16:25;22.20;99.90
15535;DHT22;7869;49.264;8.596;2022-08-21T08:18:51;22.40;99.90
15535;DHT22;7869;49.264;8.596;2022-08-21T08:21:17;22.50;99.90
15535;DHT22;7869;49.264;8.596;2022-08-21T08:23:46;22.70;99.90
15535;DHT22;7869;49.264;8.596;2022-08-21T08:26:12;22.80;99.90
15535;DHT22;7869;49.264;8.596;2022-08-21T08:28:37;22.90;99.90
15535;DHT22;7869;49.264;8.596;2022-08-21T08:31:04;22.80;99.90
15535;DHT22;7869;49.264;8.596;2022-08-21T08:33:29;22.80;99.90
15535;DHT22;7869;49.264;8.596;2022-08-21T08:35:55;22.90;99.90
15535;DHT22;7869;49.264;8.596;2022-08-21T08:38:22;22.90;99.90
15535;DHT22;7869;49.264;8.596;2022-08-21T08:41:07;23.00;99.90
15535;DHT22;7869;49.264;8.596;2022-08-21T08:43:34;23.00;99.90
15535;DHT22;7869;49.264;8.596;2022-08-21T08:46:15;23.10;99.90
15535;DHT22;7869;49.264;8.596;2022-08-21T08:48:52;23.10;99.90
15535;DHT22;7869;49.264;8.596;2022-08-21T08:51:26;23.20;99.90
15535;DHT22;7869;49.264;8.596;2022-08-21T08:54:02;23.30;99.90
15535;DHT22;7869;49.264;8.596;2022-08-21T08:56:32;23.40;99.90
15535;DHT22;7869;49.264;8.596;2022-08-21T08:59:08;23.60;99.90
15535;DHT22;7869;49.264;8.596;2022-08-21T09:01:36;23.80;99.90
15535;DHT22;7869;49.264;8.596;2022-08-21T09:04:02;24.00;99.90
15535;DHT22;7869;49.264;8.596;2022-08-21T09:07:19;24.00;99.90
15535;DHT22;7869;49.264;8.596;2022-08-21T09:12:49;23.90;99.90
15535;DHT22;7869;49.264;8.596;2022-08-21T09:21:07;24.40;99.90
15535;DHT22;7869;49.264;8.596;2022-08-21T09:23:42;24.10;99.90
15535;DHT22;7869;49.264;8.596;2022-08-21T09:26:14;24.00;99.90
15535;DHT22;7869;49.264;8.596;2022-08-21T09:28:40;24.20;99.90
15535;DHT22;7869;49.264;8.596;2022-08-21T09:31:08;24.30;99.90
15535;DHT22;7869;49.264;8.596;2022-08-21T09:33:37;24.50;99.90
15535;DHT22;7869;49.264;8.596;2022-08-21T09:36:03;24.80;99.90
15535;DHT22;7869;49.264;8.596;2022-08-21T09:38:32;25.00;99.90
15535;DHT22;7869;49.264;8.596;2022-08-21T09:41:02;25.10;99.90
15535;DHT22;7869;49.264;8.596;2022-08-21T09:43:29;25.20;99.90
15535;DHT22;7869;49.264;8.596;2022-08-21T09:46:10;25.10;99.90
15535;DHT22;7869;49.264;8.596;2022-08-21T09:48:45;25.00;99.90
15535;DHT22;7869;49.264;8.596;2022-08-21T09:51:21;25.20;99.90
15535;DHT22;7869;49.264;8.596;2022-08-21T09:57:01;25.70;99.90
15535;DHT22;7869;49.264;8.596;2022-08-21T09:59:49;25.50;99.90
15535;DHT22;7869;49.264;8.596;2022-08-21T10:04:52;25.40;99.90
15535;DHT22;7869;49.264;8.596;2022-08-21T10:07:21;25.40;99.90
15535;DHT22;7869;49.264;8.596;2022-08-21T10:10:08;25.30;99.90
15535;DHT22;7869;49.264;8.596;2022-08-21T10:15:39;25.80;99.90
15535;DHT22;7869;49.264;8.596;2022-08-21T10:18:25;25.90;99.90
15535;DHT22;7869;49.264;8.596;2022-08-21T10:21:02;25.90;99.90
15535;DHT22;7869;49.264;8.596;2022-08-21T10:31:53;25.70;99.90
15535;DHT22;7869;49.264;8.596;2022-08-21T10:37:05;25.80;99.90
15535;DHT22;7869;49.264;8.596;2022-08-21T10:39:35;25.90;99.90
15535;DHT22;7869;49.264;8.596;2022-08-21T10:44:41;25.90;99.90
15535;DHT22;7869;49.264;8.596;2022-08-21T10:47:20;26.00;99.90
15535;DHT22;7869;49.264;8.596;2022-08-21T10:55:12;26.20;99.90
15535;DHT22;7869;49.264;8.596;2022-08-21T10:57:58;26.10;99.90
15535;DHT22;7869;49.264;8.596;2022-08-21T11:00:28;26.20;99.90
15535;DHT22;7869;49.264;8.596;2022-08-21T11:03:17;26.20;99.90
15535;DHT22;7869;49.264;8.596;2022-08-21T11:05:52;26.20;99.90
15535;DHT22;7869;49.264;8.596;2022-08-21T11:10:52;26.60;99.90
15535;DHT22;7869;49.264;8.596;2022-08-21T11:13:39;26.80;99.50
15535;DHT22;7869;49.264;8.596;2022-08-21T11:19:05;26.10;99.50
15535;DHT22;7869;49.264;8.596;2022-08-21T11:22:16;26.20;97.70
15535;DHT22;7869;49.264;8.596;2022-08-21T11:25:34;26.30;99.90
15535;DHT22;7869;49.264;8.596;2022-08-21T11:27:43;26.20;96.60
15535;DHT22;7869;49.264;8.596;2022-08-21T11:30:12;26.60;95.00
15535;DHT22;7869;49.264;8.596;2022-08-21T11:32:47;26.70;91.00
15535;DHT22;7869;49.264;8.596;2022-08-21T11:43:46;26.70;91.70
15535;DHT22;7869;49.264;8.596;2022-08-21T11:49:03;27.00;80.50
15535;DHT22;7869;49.264;8.596;2022-08-21T11:51:53;27.10;78.60
15535;DHT22;7869;49.264;8.596;2022-08-21T11:57:17;27.30;76.00
15535;DHT22;7869;49.264;8.596;2022-08-21T12:00:07;27.30;73.70
15535;DHT22;7869;49.264;8.596;2022-08-21T12:02:39;27.30;69.70
15535;DHT22;7869;49.264;8.596;2022-08-21T12:05:09;27.30;66.90
15535;DHT22;7869;49.264;8.596;2022-08-21T12:07:42;27.10;67.10
15535;DHT22;7869;49.264;8.596;2022-08-21T12:10:19;27.20;67.40
15535;DHT22;7869;49.264;8.596;2022-08-21T12:12:48;27.30;62.60
15535;DHT22;7869;49.264;8.596;2022-08-21T12:18:22;27.30;60.00
15535;DHT22;7869;49.264;8.596;2022-08-21T12:26:56;27.30;51.90
15535;DHT22;7869;49.264;8.596;2022-08-21T12:29:26;27.40;51.60
15535;DHT22;7869;49.264;8.596;2022-08-21T12:34:40;27.40;51.80
15535;DHT22;7869;49.264;8.596;2022-08-21T12:37:39;27.30;49.10
15535;DHT22;7869;49.264;8.596;2022-08-21T12:40:30;27.30;48.70
15535;DHT22;7869;49.264;8.596;2022-08-21T12:43:00;27.60;45.60
15535;DHT22;7869;49.264;8.596;2022-08-21T12:45:48;27.80;44.50
15535;DHT22;7869;49.264;8.596;2022-08-21T12:48:26;27.80;39.40
15535;DHT22;7869;49.264;8.596;2022-08-21T12:50:58;27.70;42.10
15535;DHT22;7869;49.264;8.596;2022-08-21T12:53:51;27.80;38.00
15535;DHT22;7869;49.264;8.596;2022-08-21T12:56:24;27.90;35.30
15535;DHT22;7869;49.264;8.596;2022-08-21T12:58:53;28.00;30.20
15535;DHT22;7869;49.264;8.596;2022-08-21T13:03:51;27.90;27.20
15535;DHT22;7869;49.264;8.596;2022-08-21T13:06:20;27.70;23.10
15535;DHT22;7869;49.264;8.596;2022-08-21T13:08:48;27.80;25.30
15535;DHT22;7869;49.264;8.596;2022-08-21T13:11:18;27.80;22.10
15535;DHT22;7869;49.264;8.596;2022-08-21T13:13:49;27.80;22.90
15535;DHT22;7869;49.264;8.596;2022-08-21T13:16:20;27.80;20.60
15535;DHT22;7869;49.264;8.596;2022-08-21T13:18:59;27.90;19.70
15535;DHT22;7869;49.264;8.596;2022-08-21T13:21:38;28.00;20.30
15535;DHT22;7869;49.264;8.596;2022-08-21T13:24:28;28.10;18.20
15535;DHT22;7869;49.264;8.596;2022-08-21T13:26:55;28.20;13.50
15535;DHT22;7869;49.264;8.596;2022-08-21T13:29:26;28.30;10.30
15535;DHT22;7869;49.264;8.596;2022-08-21T13:31:55;28.20;12.90
15535;DHT22;7869;49.264;8.596;2022-08-21T13:34:24;28.50;10.30
15535;DHT22;7869;49.264;8.596;2022-08-21T13:36:54;28.70;6.10
15535;DHT22;7869;49.264;8.596;2022-08-21T13:39:21;28.50;3.50
15535;DHT22;7869;49.264;8.596;2022-08-21T13:41:49;28.40;23.30
15535;DHT22;7869;49.264;8.596;2022-08-21T13:44:34;28.50;2.90
15535;DHT22;7869;49.264;8.596;2022-08-21T13:47:02;28.40;4.10
15535;DHT22;7869;49.264;8.596;2022-08-21T13:49:38;28.50;2.60
15535;DHT22;7869;49.264;8.596;2022-08-21T13:52:18;28.40;3.50
15535;DHT22;7869;49.264;8.596;2022-08-21T13:54:56;28.60;2.90
15535;DHT22;7869;49.264;8.596;2022-08-21T13:57:30;28.70;1.00
15535;DHT22;7869;49.264;8.596;2022-08-21T14:02:42;29.00;1.00
15535;DHT22;7869;49.264;8.596;2022-08-21T14:05:16;28.70;1.00
15535;DHT22;7869;49.264;8.596;2022-08-21T14:07:44;28.70;16.50
15535;DHT22;7869;49.264;8.596;2022-08-21T14:10:17;28.90;1.00
15535;DHT22;7869;49.264;8.596;2022-08-21T14:12:53;29.30;1.00
15535;DHT22;7869;49.264;8.596;2022-08-21T14:15:28;29.40;1.00
15535;DHT22;7869;49.264;8.596;2022-08-21T14:17:57;29.40;1.00
15535;DHT22;7869;49.264;8.596;2022-08-21T14:20:34;29.30;1.00
15535;DHT22;7869;49.264;8.596;2022-08-21T14:23:01;29.30;1.00
15535;DHT22;7869;49.264;8.596;2022-08-21T14:25:37;29.20;1.00
15535;DHT22;7869;49.264;8.596;2022-08-21T14:28:08;29.40;1.00
15535;DHT22;7869;49.264;8.596;2022-08-21T14:30:39;29.80;1.00
15535;DHT22;7869;49.264;8.596;2022-08-21T14:33:09;29.80;1.00
15535;DHT22;7869;49.264;8.596;2022-08-21T14:35:36;29.40;1.00
15535;DHT22;7869;49.264;8.596;2022-08-21T14:38:02;29.50;1.00
15535;DHT22;7869;49.264;8.596;2022-08-21T14:40:27;29.60;1.00
15535;DHT22;7869;49.264;8.596;2022-08-21T14:42:54;29.70;1.00
15535;DHT22;7869;49.264;8.596;2022-08-21T14:45:26;29.40;1.00
15535;DHT22;7869;49.264;8.596;2022-08-21T14:47:52;29.80;1.00
15535;DHT22;7869;49.264;8.596;2022-08-21T14:50:18;29.90;1.00
15535;DHT22;7869;49.264;8.596;2022-08-21T14:52:44;30.00;1.00
15535;DHT22;7869;49.264;8.596;2022-08-21T14:55:13;30.00;1.00
15535;DHT22;7869;49.264;8.596;2022-08-21T14:57:47;29.90;1.00
15535;DHT22;7869;49.264;8.596;2022-08-21T15:00:16;30.00;1.00
15535;DHT22;7869;49.264;8.596;2022-08-21T15:02:43;30.40;1.00
15535;DHT22;7869;49.264;8.596;2022-08-21T15:05:09;30.70;1.00
15535;DHT22;7869;49.264;8.596;2022-08-21T15:07:35;30.90;1.00
15535;DHT22;7869;49.264;8.596;2022-08-21T15:10:01;30.60;1.00
15535;DHT22;7869;49.264;8.596;2022-08-21T15:12:27;30.50;1.00
15535;DHT22;7869;49.264;8.596;2022-08-21T15:14:52;30.60;1.00
15535;DHT22;7869;49.264;8.596;2022-08-21T15:17:18;31.30;1.00
15535;DHT22;7869;49.264;8.596;2022-08-21T15:19:44;32.30;1.00
15535;DHT22;7869;49.264;8.596;2022-08-21T15:22:10;33.00;1.00
15535;DHT22;7869;49.264;8.596;2022-08-21T15:24:35;33.20;1.00
15535;DHT22;7869;49.264;8.596;2022-08-21T15:27:02;33.40;1.00
15535;DHT22;7869;49.264;8.596;2022-08-21T15:29:30;33.80;1.00
15535;DHT22;7869;49.264;8.596;2022-08-21T15:31:57;33.90;1.00
15535;DHT22;7869;49.264;8.596;2022-08-21T15:34:24;33.90;1.00
15535;DHT22;7869;49.264;8.596;2022-08-21T15:36:51;33.50;1.00
15535;DHT22;7869;49.264;8.596;2022-08-21T15:39:16;33.70;1.00
15535;DHT22;7869;49.264;8.596;2022-08-21T15:41:43;33.80;1.00
15535;DHT22;7869;49.264;8.596;2022-08-21T15:44:11;33.80;1.00
15535;DHT22;7869;49.264;8.596;2022-08-21T15:46:38;33.50;1.00
15535;DHT22;7869;49.264;8.596;2022-08-21T15:49:04;33.70;1.00
15535;DHT22;7869;49.264;8.596;2022-08-21T15:51:30;34.30;1.00
15535;DHT22;7869;49.264;8.596;2022-08-21T15:53:56;34.60;1.00
15535;DHT22;7869;49.264;8.596;2022-08-21T15:56:32;34.80;1.00
15535;DHT22;7869;49.264;8.596;2022-08-21T15:59:05;34.90;1.00
15535;DHT22;7869;49.264;8.596;2022-08-21T16:01:32;35.30;1.00
15535;DHT22;7869;49.264;8.596;2022-08-21T16:03:58;35.40;1.00
15535;DHT22;7869;49.264;8.596;2022-08-21T16:06:24;35.30;1.00
15535;DHT22;7869;49.264;8.596;2022-08-21T16:08:49;35.10;1.00
15535;DHT22;7869;49.264;8.596;2022-08-21T16:11:15;34.80;1.00
15535;DHT22;7869;49.264;8.596;2022-08-21T16:13:43;35.00;1.00
15535;DHT22;7869;49.264;8.596;2022-08-21T16:16:11;34.70;1.00
15535;DHT22;7869;49.264;8.596;2022-08-21T16:18:38;35.00;1.00
15535;DHT22;7869;49.264;8.596;2022-08-21T16:21:05;35.40;1.00
15535;DHT22;7869;49.264;8.596;2022-08-21T16:23:32;35.30;1.00
15535;DHT22;7869;49.264;8.596;2022-08-21T16:26:01;35.60;1.00
15535;DHT22;7869;49.264;8.596;2022-08-21T16:28:28;36.00;1.00
15535;DHT22;7869;49.264;8.596;2022-08-21T16:30:54;36.10;1.00
15535;DHT22;7869;49.264;8.596;2022-08-21T16:33:43;35.80;1.00
15535;DHT22;7869;49.264;8.596;2022-08-21T16:36:10;35.30;1.00
15535;DHT22;7869;49.264;8.596;2022-08-21T16:38:37;35.40;1.00
15535;DHT22;7869;49.264;8.596;2022-08-21T16:41:04;35.40;1.00
15535;DHT22;7869;49.264;8.596;2022-08-21T16:43:31;35.70;1.00
15535;DHT22;7869;49.264;8.596;2022-08-21T16:45:57;35.70;1.00
15535;DHT22;7869;49.264;8.596;2022-08-21T16:48:24;35.20;1.00
15535;DHT22;7869;49.264;8.596;2022-08-21T16:50:50;34.80;1.00
15535;DHT22;7869;49.264;8.596;2022-08-21T16:53:15;34.30;1.00
15535;DHT22;7869;49.264;8.596;2022-08-21T16:55:42;33.80;1.00
15535;DHT22;7869;49.264;8.596;2022-08-21T16:58:12;33.50;1.00
15535;DHT22;7869;49.264;8.596;2022-08-21T17:00:39;33.00;1.00
15535;DHT22;7869;49.264;8.596;2022-08-21T17:03:05;32.30;1.00
15535;DHT22;7869;49.264;8.596;2022-08-21T17:05:31;32.60;1.00
15535;DHT22;7869;49.264;8.596;2022-08-21T17:07:57;33.10;1.00
15535;DHT22;7869;49.264;8.596;2022-08-21T17:10:22;33.80;1.00
15535;DHT22;7869;49.264;8.596;2022-08-21T17:12:52;33.60;1.00
15535;DHT22;7869;49.264;8.596;2022-08-21T17:15:27;33.70;1.00
15535;DHT22;7869;49.264;8.596;2022-08-21T17:17:54;33.20;1.00